createdAt,value
2018-08-22T00:00:39.447Z,99.90
2018-08-22T00:03:08.239Z,99.90
2018-08-22T00:05:37.018Z,99.90
2018-08-22T00:08:05.890Z,99.90
2018-08-22T00:10:34.474Z,99.90
2018-08-22T00:13:03.020Z,99.90
2018-08-22T00:15:31.673Z,99.90
2018-08-22T00:18:00.288Z,99.90
2018-08-22T00:20:28.875Z,99.90
2018-08-22T00:22:57.465Z,99.90
2018-08-22T00:25:26.115Z,99.90
2018-08-22T00:27:54.620Z,99.90
2018-08-22T00:30:23.208Z,99.90
2018-08-22T00:32:51.779Z,99.90
2018-08-22T00:35:20.360Z,99.90
2018-08-22T00:37:49.027Z,99.90
2018-08-22T00:40:17.637Z,99.90
2018-08-22T00:42:46.218Z,99.90
2018-08-22T00:45:14.813Z,99.90
2018-08-22T00:47:43.384Z,99.90
2018-08-22T00:50:11.971Z,99.90
2018-08-22T00:52:40.556Z,99.90
2018-08-22T00:55:09.140Z,99.90
2018-08-22T00:57:37.712Z,99.90
2018-08-22T01:00:06.351Z,99.90
2018-08-22T01:02:34.948Z,99.90
2018-08-22T01:05:03.596Z,99.90
2018-08-22T01:07:32.207Z,99.90
2018-08-22T01:10:00.813Z,99.90
2018-08-22T01:12:29.405Z,99.90
2018-08-22T01:14:57.958Z,99.90
2018-08-22T01:17:26.564Z,99.90
2018-08-22T01:19:55.178Z,99.90
2018-08-22T01:22:23.798Z,99.90
2018-08-22T01:24:52.399Z,99.90
2018-08-22T01:27:22.892Z,99.90
2018-08-22T01:29:53.389Z,99.90
2018-08-22T01:32:22.732Z,99.90
2018-08-22T01:34:52.319Z,99.90
2018-08-22T01:37:20.992Z,99.90
2018-08-22T01:39:49.740Z,99.90
2018-08-22T01:42:18.700Z,99.90
2018-08-22T01:44:47.564Z,99.90
2018-08-22T01:47:16.464Z,99.90
2018-08-22T01:49:45.029Z,99.90
2018-08-22T01:52:13.670Z,99.90
2018-08-22T01:54:42.256Z,99.90
2018-08-22T01:57:10.926Z,99.90
2018-08-22T01:59:39.504Z,99.90
2018-08-22T02:02:08.136Z,99.90
2018-08-22T02:04:36.720Z,99.90
2018-08-22T02:07:05.385Z,99.90
2018-08-22T02:09:33.975Z,99.90
2018-08-22T02:12:02.607Z,99.90
2018-08-22T02:14:31.192Z,99.90
2018-08-22T02:16:59.803Z,99.90
2018-08-22T02:19:28.383Z,99.90
2018-08-22T02:21:56.960Z,99.90
2018-08-22T02:24:25.635Z,99.90
2018-08-22T02:26:54.249Z,99.90
2018-08-22T02:29:22.811Z,99.90
2018-08-22T02:31:51.438Z,99.90
2018-08-22T02:34:20.013Z,99.90
2018-08-22T02:36:48.624Z,99.90
2018-08-22T02:39:17.220Z,99.90
2018-08-22T02:41:45.820Z,99.90
2018-08-22T02:44:14.408Z,99.90
2018-08-22T02:46:43.044Z,99.90
2018-08-22T02:49:13.620Z,99.90
2018-08-22T02:51:42.220Z,99.90
2018-08-22T02:54:10.806Z,99.90
2018-08-22T02:56:39.401Z,99.90
2018-08-22T02:59:08.038Z,99.90
2018-08-22T03:01:36.645Z,99.90
2018-08-22T03:04:05.360Z,99.90
2018-08-22T03:06:34.032Z,99.90
2018-08-22T03:09:02.667Z,99.90
2018-08-22T03:11:31.260Z,99.90
2018-08-22T03:14:00.010Z,99.90
2018-08-22T03:16:28.600Z,99.90
2018-08-22T03:18:57.180Z,99.90
2018-08-22T03:21:25.744Z,99.90
2018-08-22T03:23:54.532Z,99.90
2018-08-22T03:26:23.249Z,99.90
2018-08-22T03:28:51.850Z,99.90
2018-08-22T03:31:20.373Z,99.90
2018-08-22T03:33:48.932Z,99.90
2018-08-22T03:36:17.464Z,99.90
2018-08-22T03:38:46.084Z,99.90
2018-08-22T03:41:14.817Z,99.90
2018-08-22T03:43:43.403Z,99.90
2018-08-22T03:46:11.920Z,99.90
2018-08-22T03:48:40.491Z,99.90
2018-08-22T03:51:09.063Z,99.90
2018-08-22T03:53:37.808Z,99.90
2018-08-22T03:56:06.401Z,99.90
2018-08-22T03:58:34.954Z,99.90
2018-08-22T04:01:03.664Z,99.90
2018-08-22T04:03:32.488Z,99.90
2018-08-22T04:06:01.091Z,99.90
2018-08-22T04:08:29.832Z,99.90
2018-08-22T04:10:58.382Z,99.90
2018-08-22T04:13:26.939Z,99.90
2018-08-22T04:15:55.480Z,99.90
2018-08-22T04:18:24.127Z,99.90
2018-08-22T04:20:52.694Z,99.90
2018-08-22T04:23:21.294Z,99.90
2018-08-22T04:25:49.867Z,99.90
2018-08-22T04:28:18.472Z,99.90
2018-08-22T04:30:47.048Z,99.90
2018-08-22T04:33:15.661Z,99.90
2018-08-22T04:35:44.216Z,99.90
2018-08-22T04:38:12.820Z,99.90
2018-08-22T04:40:41.375Z,99.90
2018-08-22T04:43:10.072Z,99.90
2018-08-22T04:45:38.660Z,99.90
2018-08-22T04:48:07.332Z,99.90
2018-08-22T04:50:35.900Z,99.90
2018-08-22T04:53:04.513Z,99.90
2018-08-22T04:55:33.660Z,99.90
2018-08-22T04:58:02.246Z,99.90
2018-08-22T05:00:30.808Z,99.90
2018-08-22T05:02:59.436Z,99.90
2018-08-22T05:05:27.993Z,99.90
2018-08-22T05:07:56.601Z,99.90
2018-08-22T05:10:25.136Z,99.90
2018-08-22T05:12:54.216Z,99.90
2018-08-22T05:15:22.767Z,99.90
2018-08-22T05:17:51.478Z,99.90
2018-08-22T05:20:20.045Z,99.90
2018-08-22T05:22:48.617Z,99.90
2018-08-22T05:25:17.213Z,99.90
2018-08-22T05:27:45.788Z,99.90
2018-08-22T05:30:14.440Z,99.90
2018-08-22T05:32:42.989Z,99.90
2018-08-22T05:35:11.587Z,99.90
2018-08-22T05:37:40.201Z,99.90
2018-08-22T05:40:08.853Z,99.90
2018-08-22T05:42:37.456Z,99.90
2018-08-22T05:45:06.448Z,99.90
2018-08-22T05:47:35.055Z,99.90
2018-08-22T05:50:03.771Z,99.90
2018-08-22T05:52:32.366Z,99.90
2018-08-22T05:55:01.000Z,99.90
2018-08-22T05:57:29.608Z,99.90
2018-08-22T05:59:58.184Z,99.90
2018-08-22T06:02:26.768Z,99.90
2018-08-22T06:04:55.429Z,99.90
2018-08-22T06:07:24.073Z,99.90
2018-08-22T06:09:52.705Z,99.90
2018-08-22T06:12:21.252Z,99.90
2018-08-22T06:14:50.255Z,99.90
2018-08-22T06:17:18.838Z,99.90
2018-08-22T06:19:47.419Z,99.90
2018-08-22T06:22:15.996Z,99.90
2018-08-22T06:24:44.606Z,99.90
2018-08-22T06:27:13.164Z,99.90
2018-08-22T06:29:41.701Z,99.90
2018-08-22T06:32:10.209Z,99.90
2018-08-22T06:34:38.768Z,99.90
2018-08-22T06:37:07.289Z,99.90
2018-08-22T06:39:35.825Z,99.90
2018-08-22T06:42:04.387Z,99.90
2018-08-22T06:44:33.249Z,99.90
2018-08-22T06:47:01.805Z,99.90
2018-08-22T06:49:30.407Z,99.90
2018-08-22T06:51:59.088Z,99.90
2018-08-22T06:54:27.675Z,99.90
2018-08-22T06:56:56.234Z,99.90
2018-08-22T06:59:24.778Z,99.90
2018-08-22T07:01:53.300Z,99.90
2018-08-22T07:04:21.865Z,99.90
2018-08-22T07:06:50.420Z,99.90
2018-08-22T07:09:18.968Z,99.90
2018-08-22T07:11:47.550Z,99.90
2018-08-22T07:14:16.136Z,99.90
2018-08-22T07:16:44.725Z,99.90
2018-08-22T07:19:13.321Z,99.90
2018-08-22T07:21:41.914Z,99.90
2018-08-22T07:24:10.535Z,99.90
2018-08-22T07:26:39.129Z,99.90
2018-08-22T07:29:07.730Z,99.90
2018-08-22T07:31:36.382Z,99.90
2018-08-22T07:34:04.996Z,99.90
2018-08-22T07:36:33.592Z,99.90
2018-08-22T07:39:02.479Z,99.90
2018-08-22T07:41:31.089Z,99.90
2018-08-22T07:43:59.666Z,99.90
2018-08-22T07:46:28.244Z,99.90
2018-08-22T07:48:56.837Z,99.90
2018-08-22T07:51:25.425Z,99.90
2018-08-22T07:53:53.988Z,99.90
2018-08-22T07:56:24.545Z,99.90
2018-08-22T07:59:05.058Z,99.90
2018-08-22T08:01:33.657Z,99.90
2018-08-22T08:04:02.264Z,99.90
2018-08-22T08:06:30.881Z,99.90
2018-08-22T08:09:00.448Z,99.90
2018-08-22T08:11:29.102Z,99.90
2018-08-22T08:13:57.639Z,99.90
2018-08-22T08:16:26.233Z,99.90
2018-08-22T08:18:55.439Z,99.90
2018-08-22T08:21:24.039Z,99.90
2018-08-22T08:23:52.605Z,99.90
2018-08-22T08:26:21.364Z,99.90
2018-08-22T08:28:49.936Z,99.90
2018-08-22T08:31:18.541Z,99.90
2018-08-22T08:33:47.108Z,99.90
2018-08-22T08:36:15.808Z,99.90
2018-08-22T08:38:44.304Z,99.90
2018-08-22T08:41:12.929Z,99.90
2018-08-22T08:43:41.709Z,99.90
2018-08-22T08:46:10.282Z,99.90
2018-08-22T08:48:38.857Z,99.90
2018-08-22T08:51:07.483Z,99.90
2018-08-22T08:53:36.084Z,99.90
2018-08-22T08:56:04.817Z,99.90
2018-08-22T08:58:33.397Z,99.90
2018-08-22T09:01:02.014Z,99.90
2018-08-22T09:03:30.608Z,99.90
2018-08-22T09:05:59.216Z,99.90
2018-08-22T09:08:27.811Z,99.90
2018-08-22T09:10:56.398Z,99.90
2018-08-22T09:13:24.965Z,99.90
2018-08-22T09:15:53.630Z,99.90
2018-08-22T09:18:22.264Z,99.90
2018-08-22T09:20:50.902Z,99.90
2018-08-22T09:23:19.508Z,99.90
2018-08-22T09:25:48.143Z,99.90
2018-08-22T09:28:16.750Z,99.90
2018-08-22T09:30:45.349Z,99.90
2018-08-22T09:33:13.909Z,99.90
2018-08-22T09:35:42.520Z,99.90
2018-08-22T09:38:11.115Z,99.90
2018-08-22T09:40:39.725Z,99.90
2018-08-22T09:43:08.319Z,99.90
2018-08-22T09:45:36.910Z,99.90
2018-08-22T09:48:05.529Z,99.90
2018-08-22T09:50:34.088Z,99.90
2018-08-22T09:53:02.623Z,99.90
2018-08-22T09:55:32.061Z,99.90
2018-08-22T09:58:00.614Z,99.90
2018-08-22T10:00:34.527Z,99.90
2018-08-22T10:03:03.164Z,99.90
2018-08-22T10:05:31.770Z,99.90
2018-08-22T10:08:00.299Z,99.90
2018-08-22T10:10:28.916Z,99.90
2018-08-22T10:12:57.471Z,99.90
2018-08-22T10:15:26.142Z,99.90
2018-08-22T10:17:55.305Z,99.90
2018-08-22T10:20:23.891Z,99.90
2018-08-22T10:22:52.559Z,99.90
2018-08-22T10:25:21.147Z,99.90
2018-08-22T10:27:50.049Z,99.90
2018-08-22T10:30:18.638Z,99.90
2018-08-22T10:32:47.299Z,99.90
2018-08-22T10:35:15.948Z,99.90
2018-08-22T10:37:45.321Z,99.90
2018-08-22T10:40:13.929Z,99.90
2018-08-22T10:42:42.658Z,99.90
2018-08-22T10:45:11.240Z,99.90
2018-08-22T10:47:39.878Z,99.90
2018-08-22T10:50:08.508Z,99.90
2018-08-22T10:52:37.085Z,99.90
2018-08-22T10:55:05.841Z,99.90
2018-08-22T10:57:34.483Z,99.90
2018-08-22T11:00:03.117Z,99.90
2018-08-22T11:02:31.700Z,99.90
2018-08-22T11:05:01.052Z,99.90
2018-08-22T11:07:29.654Z,99.90
2018-08-22T11:09:58.315Z,99.90
2018-08-22T11:12:26.949Z,99.90
2018-08-22T11:14:55.552Z,99.90
2018-08-22T11:17:24.184Z,99.90
2018-08-22T11:19:52.752Z,99.90
2018-08-22T11:22:32.532Z,99.90
2018-08-22T11:25:12.369Z,99.90
2018-08-22T11:27:52.044Z,99.30
2018-08-22T11:30:31.848Z,98.40
2018-08-22T11:33:11.630Z,98.70
2018-08-22T11:35:38.993Z,98.10
2018-08-22T11:38:07.573Z,98.70
2018-08-22T11:40:36.174Z,98.60
2018-08-22T11:43:05.292Z,98.30
2018-08-22T11:45:33.825Z,97.90
2018-08-22T11:48:02.386Z,98.70
2018-08-22T11:50:30.928Z,99.00
2018-08-22T11:52:59.477Z,99.40
2018-08-22T11:55:28.085Z,98.90
2018-08-22T11:57:56.684Z,98.70
2018-08-22T12:00:25.238Z,97.70
2018-08-22T12:02:53.824Z,97.30
2018-08-22T12:05:22.368Z,97.60
2018-08-22T12:07:50.937Z,97.20
2018-08-22T12:10:19.553Z,96.60
2018-08-22T12:12:48.133Z,97.10
2018-08-22T12:15:16.685Z,96.40
2018-08-22T12:17:45.290Z,95.90
2018-08-22T12:20:13.841Z,95.40
2018-08-22T12:22:42.433Z,95.60
2018-08-22T12:25:11.009Z,96.10
2018-08-22T12:27:39.571Z,95.60
2018-08-22T12:30:08.189Z,95.20
2018-08-22T12:32:37.053Z,94.70
2018-08-22T12:35:06.150Z,94.40
2018-08-22T12:37:34.877Z,94.30
2018-08-22T12:40:03.469Z,94.10
2018-08-22T12:42:32.036Z,94.20
2018-08-22T12:45:00.621Z,94.10
2018-08-22T12:47:29.220Z,93.90
2018-08-22T12:49:57.796Z,94.20
2018-08-22T12:52:26.423Z,94.50
2018-08-22T12:54:55.488Z,94.10
2018-08-22T12:57:24.074Z,93.30
2018-08-22T12:59:52.713Z,93.60
2018-08-22T13:02:21.318Z,92.80
2018-08-22T13:04:49.855Z,91.60
2018-08-22T13:07:18.450Z,92.20
2018-08-22T13:09:47.056Z,92.70
2018-08-22T13:12:15.615Z,91.20
2018-08-22T13:14:44.180Z,90.80
2018-08-22T13:17:12.762Z,90.90
2018-08-22T13:19:41.324Z,90.40
2018-08-22T13:22:09.892Z,90.40
2018-08-22T13:24:38.601Z,90.80
2018-08-22T13:27:07.131Z,90.60
2018-08-22T13:29:35.704Z,90.30
2018-08-22T13:32:04.290Z,90.00
2018-08-22T13:34:32.873Z,89.00
2018-08-22T13:37:01.370Z,86.10
2018-08-22T13:39:29.931Z,83.40
2018-08-22T13:41:58.506Z,84.60
2018-08-22T13:44:27.053Z,84.90
2018-08-22T13:46:55.605Z,85.10
2018-08-22T13:49:24.161Z,85.60
2018-08-22T13:51:52.681Z,85.80
2018-08-22T13:54:21.238Z,85.60
2018-08-22T13:56:49.773Z,85.90
2018-08-22T13:59:18.325Z,84.70
2018-08-22T14:01:46.847Z,82.90
2018-08-22T14:04:16.073Z,80.70
2018-08-22T14:06:45.103Z,83.70
2018-08-22T14:09:15.422Z,81.20
2018-08-22T14:11:45.385Z,82.40
2018-08-22T14:14:15.833Z,81.90
2018-08-22T14:16:45.533Z,80.70
2018-08-22T14:19:19.052Z,81.10
2018-08-22T14:21:54.361Z,82.60
2018-08-22T14:24:24.544Z,82.40
2018-08-22T14:26:54.388Z,83.10
2018-08-22T14:29:25.061Z,84.50
2018-08-22T14:53:06.634Z,81.50
2018-08-22T14:55:36.128Z,80.20
2018-08-22T14:58:05.324Z,80.70
2018-08-22T15:00:33.814Z,80.70
2018-08-22T15:03:03.211Z,79.30
2018-08-22T15:05:31.584Z,78.60
2018-08-22T15:08:01.229Z,79.30
2018-08-22T15:10:29.720Z,78.90
2018-08-22T15:12:58.701Z,79.50
2018-08-22T15:15:28.212Z,79.70
2018-08-22T15:17:56.696Z,78.20
2018-08-22T15:20:25.188Z,79.40
2018-08-22T15:22:53.921Z,80.10
2018-08-22T15:25:23.060Z,77.60
2018-08-22T15:27:52.457Z,79.50
2018-08-22T15:30:21.047Z,80.00
2018-08-22T15:32:50.248Z,80.00
2018-08-22T15:35:19.417Z,82.60
2018-08-22T15:37:49.269Z,83.10
2018-08-22T15:40:17.865Z,83.20
2018-08-22T15:42:46.378Z,83.70
2018-08-22T15:45:14.938Z,83.90
2018-08-22T15:47:43.592Z,84.70
2018-08-22T15:50:12.077Z,84.60
2018-08-22T15:52:40.620Z,84.70
2018-08-22T15:55:11.842Z,83.30
2018-08-22T15:57:53.937Z,84.40
2018-08-22T16:00:44.351Z,84.50
2018-08-22T16:03:12.894Z,85.00
2018-08-22T16:05:42.293Z,84.60
2018-08-22T16:08:12.428Z,83.80
2018-08-22T16:10:40.909Z,84.00
2018-08-22T16:13:16.680Z,84.70
2018-08-22T16:15:46.152Z,83.70
2018-08-22T16:18:14.704Z,84.70
2018-08-22T16:20:51.700Z,83.40
2018-08-22T16:23:20.288Z,84.50
2018-08-22T16:25:50.120Z,83.60
2018-08-22T16:28:19.114Z,83.50
2018-08-22T16:30:56.859Z,84.40
2018-08-22T16:33:18.192Z,83.90
2018-08-22T16:35:49.827Z,84.50
2018-08-22T16:38:19.281Z,84.60
2018-08-22T16:40:51.044Z,85.20
2018-08-22T16:43:38.329Z,85.50
2018-08-22T16:46:09.941Z,84.70
2018-08-22T16:48:39.297Z,85.80
2018-08-22T16:51:09.012Z,86.00
2018-08-22T16:53:37.560Z,86.40
2018-08-22T16:56:06.248Z,86.40
2018-08-22T16:58:34.868Z,86.30
2018-08-22T17:01:03.488Z,85.80
2018-08-22T17:03:32.286Z,86.20
2018-08-22T17:06:07.400Z,84.90
2018-08-22T17:08:35.911Z,84.20
2018-08-22T17:11:05.772Z,82.90
2018-08-22T17:13:49.799Z,82.50
2018-08-22T17:16:20.676Z,82.10
2018-08-22T17:18:49.225Z,81.50
2018-08-22T17:21:19.765Z,81.70
2018-08-22T17:23:50.071Z,81.10
2018-08-22T17:26:19.720Z,79.20
2018-08-22T17:28:53.302Z,79.60
2018-08-22T17:31:22.928Z,79.00
2018-08-22T17:33:57.245Z,79.60
2018-08-22T17:36:25.993Z,79.60
2018-08-22T17:38:56.825Z,80.40
2018-08-22T17:41:29.425Z,81.50
2018-08-22T17:44:09.489Z,82.30
2018-08-22T17:46:39.429Z,83.60
2018-08-22T17:49:07.964Z,84.70
2018-08-22T17:51:55.464Z,86.00
2018-08-22T17:54:25.981Z,87.00
2018-08-22T17:57:06.530Z,87.70
2018-08-22T17:59:35.607Z,88.10
2018-08-22T18:02:04.145Z,88.30
2018-08-22T18:04:43.974Z,89.00
2018-08-22T18:07:16.967Z,89.10
2018-08-22T18:09:50.621Z,90.10
2018-08-22T18:12:24.731Z,90.70
2018-08-22T18:14:56.580Z,90.80
2018-08-22T18:17:25.613Z,91.20
2018-08-22T18:19:59.602Z,91.40
2018-08-22T18:22:35.532Z,91.90
2018-08-22T18:25:04.844Z,92.30
2018-08-22T18:27:35.027Z,92.40
2018-08-22T18:30:03.624Z,92.50
2018-08-22T18:32:32.792Z,92.60
2018-08-22T18:35:08.373Z,93.20
2018-08-22T18:37:38.383Z,93.10
2018-08-22T18:40:20.776Z,93.30
2018-08-22T18:42:55.697Z,93.40
2018-08-22T18:45:25.889Z,93.80
2018-08-22T18:47:54.463Z,93.80
2018-08-22T18:50:23.301Z,94.10
2018-08-22T18:52:58.845Z,94.40
2018-08-22T18:55:28.622Z,94.40
2018-08-22T18:57:59.008Z,94.70
2018-08-22T19:00:27.571Z,94.90
2018-08-22T19:02:57.357Z,95.10
2018-08-22T19:05:29.028Z,95.30
2018-08-22T19:08:06.548Z,95.50
2018-08-22T19:10:36.525Z,95.80
2018-08-22T19:13:12.679Z,96.00
2018-08-22T19:15:41.224Z,96.20
2018-08-22T19:18:11.075Z,96.50
2018-08-22T19:20:41.187Z,96.60
2018-08-22T19:23:09.821Z,96.90
2018-08-22T19:25:38.338Z,97.20
2018-08-22T19:28:09.513Z,97.50
2018-08-22T19:30:39.346Z,97.60
2018-08-22T19:33:13.440Z,98.00
2018-08-22T19:35:42.988Z,98.30
2018-08-22T19:38:11.540Z,98.60
2018-08-22T19:40:40.100Z,98.80
2018-08-22T19:43:08.581Z,99.00
2018-08-22T19:45:37.099Z,99.10
2018-08-22T19:48:05.896Z,99.30
2018-08-22T19:50:34.398Z,99.50
2018-08-22T19:53:03.561Z,99.60
2018-08-22T19:55:33.273Z,99.80
2018-08-22T19:58:01.737Z,99.80
2018-08-22T20:00:30.269Z,99.90
2018-08-22T20:02:58.774Z,99.90
2018-08-22T20:05:29.646Z,99.90
2018-08-22T20:07:58.133Z,99.90
2018-08-22T20:10:26.733Z,99.90
2018-08-22T20:12:56.321Z,99.90
2018-08-22T20:15:25.041Z,99.90
2018-08-22T20:17:54.505Z,99.90
2018-08-22T20:20:23.484Z,99.90
2018-08-22T20:22:54.397Z,99.90
2018-08-22T20:25:22.831Z,99.90
2018-08-22T20:27:51.981Z,99.90
2018-08-22T20:30:21.596Z,99.90
2018-08-22T20:32:58.249Z,99.90
2018-08-22T20:35:39.248Z,99.90
2018-08-22T20:38:08.973Z,99.90
2018-08-22T20:40:37.578Z,99.90
2018-08-22T20:43:09.036Z,99.90
2018-08-22T20:45:39.102Z,99.90
2018-08-22T20:48:09.068Z,99.90
2018-08-22T20:50:40.557Z,99.90
2018-08-22T20:53:11.507Z,99.90
2018-08-22T20:55:40.203Z,99.90
2018-08-22T20:58:14.468Z,99.90
2018-08-22T21:00:43.403Z,99.90
2018-08-22T21:03:13.138Z,99.90
2018-08-22T21:05:42.617Z,99.90
2018-08-22T21:08:12.364Z,99.90
2018-08-22T21:10:42.452Z,99.90
2018-08-22T21:13:16.416Z,99.90
2018-08-22T21:15:44.979Z,99.90
2018-08-22T21:18:13.565Z,99.90
2018-08-22T21:20:42.063Z,99.90
2018-08-22T21:23:10.781Z,99.90
2018-08-22T21:25:39.414Z,99.90
2018-08-22T21:28:08.002Z,99.90
2018-08-22T21:30:39.057Z,99.90
2018-08-22T21:33:07.598Z,99.90
2018-08-22T21:35:36.133Z,99.90
2018-08-22T21:38:20.420Z,99.90
2018-08-22T21:40:48.945Z,99.90
2018-08-22T21:43:17.604Z,99.90
2018-08-22T21:45:49.327Z,99.90
2018-08-22T21:48:21.175Z,99.90
2018-08-22T21:50:49.708Z,99.90
2018-08-22T21:53:18.269Z,99.90
2018-08-22T21:55:48.669Z,99.90
2018-08-22T21:58:17.308Z,99.90
2018-08-22T22:00:45.896Z,99.90
2018-08-22T22:03:15.112Z,99.90
2018-08-22T22:06:03.928Z,99.90
2018-08-22T22:08:32.581Z,99.90
2018-08-22T22:11:04.224Z,99.90
2018-08-22T22:13:32.828Z,99.90
2018-08-22T22:16:03.572Z,99.90
2018-08-22T22:18:33.271Z,99.90
2018-08-22T22:21:13.106Z,99.90
2018-08-22T22:23:50.024Z,99.90
2018-08-22T22:26:19.496Z,99.90
2018-08-22T22:28:48.112Z,99.90
2018-08-22T22:31:17.796Z,99.90
2018-08-22T22:33:52.525Z,99.90
2018-08-22T22:36:21.417Z,99.90
2018-08-22T22:38:50.026Z,99.90
2018-08-22T22:41:18.605Z,99.90
2018-08-22T22:43:47.242Z,99.90
2018-08-22T22:46:15.773Z,99.90
2018-08-22T22:48:44.903Z,99.90
2018-08-22T22:51:13.457Z,99.90
2018-08-22T22:53:42.068Z,99.90
2018-08-22T22:56:10.649Z,99.90
2018-08-22T22:58:39.247Z,99.90
2018-08-22T23:01:08.073Z,99.90
2018-08-22T23:03:36.768Z,99.90
2018-08-22T23:06:05.430Z,99.90
2018-08-22T23:08:34.014Z,99.90
2018-08-22T23:11:02.564Z,99.90
2018-08-22T23:13:31.134Z,99.90
2018-08-22T23:15:59.697Z,99.90
2018-08-22T23:18:28.330Z,99.90
2018-08-22T23:20:56.907Z,99.90
2018-08-22T23:23:33.153Z,99.90
2018-08-22T23:26:08.101Z,99.90
2018-08-22T23:28:36.844Z,99.90
2018-08-22T23:31:05.434Z,99.90
2018-08-22T23:33:34.061Z,99.90
2018-08-22T23:36:02.598Z,99.90
2018-08-22T23:38:32.294Z,99.90
2018-08-22T23:41:01.543Z,99.90
2018-08-22T23:43:54.975Z,99.90
2018-08-22T23:46:23.472Z,99.90
2018-08-22T23:48:56.345Z,99.90
2018-08-22T23:51:24.884Z,99.90
2018-08-22T23:53:56.909Z,99.90
2018-08-22T23:56:26.680Z,99.90
2018-08-22T23:58:55.880Z,99.90
